sensor_id;sensor_type;location;lat;lon;timestamp;P1;durP1;ratioP1;P2;durP2;ratioP2
29838;SDS011;18669;53.356;-1.464;2022-11-20T00:01:21;39.08;;;18.52;;
29838;SDS011;18669;53.356;-1.464;2022-11-20T00:03:50;37.30;;;17.42;;
29838;SDS011;18669;53.356;-1.464;2022-11-20T00:06:18;38.90;;;17.83;;
29838;SDS011;18669;53.356;-1.464;2022-11-20T00:11:37;35.50;;;18.17;;
29838;SDS011;18669;53.356;-1.464;2022-11-20T00:14:03;42.33;;;18.08;;
29838;SDS011;18669;53.356;-1.464;2022-11-20T00:18:57;37.92;;;17.80;;
29838;SDS011;18669;53.356;-1.464;2022-11-20T00:21:24;35.50;;;17.23;;
29838;SDS011;18669;53.356;-1.464;2022-11-20T00:23:53;33.28;;;18.02;;
29838;SDS011;18669;53.356;-1.464;2022-11-20T00:26:21;38.75;;;18.85;;
29838;SDS011;18669;53.356;-1.464;2022-11-20T00:28:51;43.25;;;18.98;;
29838;SDS011;18669;53.356;-1.464;2022-11-20T00:31:21;39.25;;;19.23;;
29838;SDS011;18669;53.356;-1.464;2022-11-20T00:33:47;37.47;;;18.42;;
29838;SDS011;18669;53.356;-1.464;2022-11-20T00:38:44;35.85;;;18.90;;
29838;SDS011;18669;53.356;-1.464;2022-11-20T00:41:12;39.22;;;17.50;;
29838;SDS011;18669;53.356;-1.464;2022-11-20T00:43:39;36.33;;;18.42;;
29838;SDS011;18669;53.356;-1.464;2022-11-20T00:48:33;43.10;;;18.92;;
29838;SDS011;18669;53.356;-1.464;2022-11-20T00:50:59;38.90;;;18.75;;
29838;SDS011;18669;53.356;-1.464;2022-11-20T00:53:26;38.25;;;19.17;;
29838;SDS011;18669;53.356;-1.464;2022-11-20T00:55:56;35.50;;;18.60;;
29838;SDS011;18669;53.356;-1.464;2022-11-20T00:58:30;47.85;;;20.10;;
29838;SDS011;18669;53.356;-1.464;2022-11-20T01:03:37;39.28;;;19.48;;
29838;SDS011;18669;53.356;-1.464;2022-11-20T01:06:06;39.47;;;19.48;;
29838;SDS011;18669;53.356;-1.464;2022-11-20T01:08:45;39.35;;;19.85;;
29838;SDS011;18669;53.356;-1.464;2022-11-20T01:13:39;38.67;;;18.52;;
29838;SDS011;18669;53.356;-1.464;2022-11-20T01:18:40;45.88;;;19.23;;
29838;SDS011;18669;53.356;-1.464;2022-11-20T01:21:09;40.78;;;18.70;;
29838;SDS011;18669;53.356;-1.464;2022-11-20T01:23:38;41.63;;;18.38;;
29838;SDS011;18669;53.356;-1.464;2022-11-20T01:26:09;33.55;;;17.38;;
29838;SDS011;18669;53.356;-1.464;2022-11-20T01:28:38;36.55;;;17.88;;
29838;SDS011;18669;53.356;-1.464;2022-11-20T01:33:47;38.90;;;18.52;;
29838;SDS011;18669;53.356;-1.464;2022-11-20T01:36:16;38.75;;;16.92;;
29838;SDS011;18669;53.356;-1.464;2022-11-20T01:38:44;37.00;;;17.30;;
29838;SDS011;18669;53.356;-1.464;2022-11-20T01:41:11;39.40;;;15.93;;
29838;SDS011;18669;53.356;-1.464;2022-11-20T01:43:58;34.53;;;17.23;;
29838;SDS011;18669;53.356;-1.464;2022-11-20T01:46:25;35.33;;;16.20;;
29838;SDS011;18669;53.356;-1.464;2022-11-20T01:48:56;31.55;;;15.30;;
29838;SDS011;18669;53.356;-1.464;2022-11-20T01:51:30;33.65;;;16.55;;
29838;SDS011;18669;53.356;-1.464;2022-11-20T01:54:04;35.78;;;15.93;;
29838;SDS011;18669;53.356;-1.464;2022-11-20T01:56:36;30.77;;;15.02;;
29838;SDS011;18669;53.356;-1.464;2022-11-20T01:59:05;32.40;;;16.10;;
29838;SDS011;18669;53.356;-1.464;2022-11-20T02:01:38;30.55;;;15.80;;
29838;SDS011;18669;53.356;-1.464;2022-11-20T02:04:10;38.78;;;15.25;;
29838;SDS011;18669;53.356;-1.464;2022-11-20T02:06:47;41.25;;;16.45;;
29838;SDS011;18669;53.356;-1.464;2022-11-20T02:09:17;29.10;;;14.88;;
29838;SDS011;18669;53.356;-1.464;2022-11-20T02:11:43;27.58;;;14.32;;
29838;SDS011;18669;53.356;-1.464;2022-11-20T02:14:09;37.30;;;14.43;;
29838;SDS011;18669;53.356;-1.464;2022-11-20T02:16:37;29.38;;;14.27;;
29838;SDS011;18669;53.356;-1.464;2022-11-20T02:19:07;26.70;;;14.00;;
29838;SDS011;18669;53.356;-1.464;2022-11-20T02:22:26;29.40;;;13.52;;
29838;SDS011;18669;53.356;-1.464;2022-11-20T02:24:36;31.00;;;13.00;;
29838;SDS011;18669;53.356;-1.464;2022-11-20T02:27:03;29.38;;;13.63;;
29838;SDS011;18669;53.356;-1.464;2022-11-20T02:29:40;29.50;;;12.65;;
29838;SDS011;18669;53.356;-1.464;2022-11-20T02:32:17;26.85;;;13.27;;
29838;SDS011;18669;53.356;-1.464;2022-11-20T02:34:47;28.02;;;12.65;;
29838;SDS011;18669;53.356;-1.464;2022-11-20T02:37:14;33.00;;;12.82;;
29838;SDS011;18669;53.356;-1.464;2022-11-20T02:39:41;27.17;;;12.32;;
29838;SDS011;18669;53.356;-1.464;2022-11-20T02:42:08;30.67;;;13.82;;
29838;SDS011;18669;53.356;-1.464;2022-11-20T02:44:34;28.40;;;12.73;;
29838;SDS011;18669;53.356;-1.464;2022-11-20T02:47:01;38.28;;;12.82;;
29838;SDS011;18669;53.356;-1.464;2022-11-20T02:49:27;23.48;;;12.60;;
29838;SDS011;18669;53.356;-1.464;2022-11-20T02:51:53;30.52;;;12.40;;
29838;SDS011;18669;53.356;-1.464;2022-11-20T02:54:19;26.60;;;11.93;;
29838;SDS011;18669;53.356;-1.464;2022-11-20T02:56:45;19.75;;;11.10;;
29838;SDS011;18669;53.356;-1.464;2022-11-20T02:59:11;28.40;;;11.40;;
29838;SDS011;18669;53.356;-1.464;2022-11-20T03:01:38;26.52;;;12.27;;
29838;SDS011;18669;53.356;-1.464;2022-11-20T03:06:30;29.73;;;11.90;;
29838;SDS011;18669;53.356;-1.464;2022-11-20T03:08:59;25.33;;;11.55;;
29838;SDS011;18669;53.356;-1.464;2022-11-20T03:13:51;24.65;;;11.00;;
29838;SDS011;18669;53.356;-1.464;2022-11-20T03:16:20;22.08;;;10.10;;
29838;SDS011;18669;53.356;-1.464;2022-11-20T03:18:47;23.30;;;10.27;;
29838;SDS011;18669;53.356;-1.464;2022-11-20T03:21:14;28.20;;;10.88;;
29838;SDS011;18669;53.356;-1.464;2022-11-20T03:23:42;20.55;;;9.40;;
29838;SDS011;18669;53.356;-1.464;2022-11-20T03:28:46;22.02;;;9.48;;
29838;SDS011;18669;53.356;-1.464;2022-11-20T03:31:19;26.85;;;9.68;;
29838;SDS011;18669;53.356;-1.464;2022-11-20T03:33:53;20.50;;;9.05;;
29838;SDS011;18669;53.356;-1.464;2022-11-20T03:38:45;22.67;;;8.73;;
29838;SDS011;18669;53.356;-1.464;2022-11-20T03:41:13;16.35;;;7.60;;
29838;SDS011;18669;53.356;-1.464;2022-11-20T03:43:41;21.80;;;8.35;;
29838;SDS011;18669;53.356;-1.464;2022-11-20T03:46:08;21.27;;;7.57;;
29838;SDS011;18669;53.356;-1.464;2022-11-20T03:48:34;22.02;;;7.75;;
29838;SDS011;18669;53.356;-1.464;2022-11-20T03:51:08;14.07;;;7.43;;
29838;SDS011;18669;53.356;-1.464;2022-11-20T03:53:37;19.23;;;7.05;;
29838;SDS011;18669;53.356;-1.464;2022-11-20T03:56:04;15.85;;;6.10;;
29838;SDS011;18669;53.356;-1.464;2022-11-20T03:58:31;15.00;;;6.18;;
29838;SDS011;18669;53.356;-1.464;2022-11-20T04:01:03;14.50;;;6.05;;
29838;SDS011;18669;53.356;-1.464;2022-11-20T04:03:30;11.60;;;6.05;;
29838;SDS011;18669;53.356;-1.464;2022-11-20T04:06:03;12.27;;;5.80;;
29838;SDS011;18669;53.356;-1.464;2022-11-20T04:08:33;11.48;;;5.28;;
29838;SDS011;18669;53.356;-1.464;2022-11-20T04:11:13;11.15;;;5.63;;
29838;SDS011;18669;53.356;-1.464;2022-11-20T04:13:42;11.38;;;5.43;;
29838;SDS011;18669;53.356;-1.464;2022-11-20T04:16:11;11.65;;;5.20;;
29838;SDS011;18669;53.356;-1.464;2022-11-20T04:18:37;8.15;;;4.63;;
29838;SDS011;18669;53.356;-1.464;2022-11-20T04:21:05;11.13;;;5.40;;
29838;SDS011;18669;53.356;-1.464;2022-11-20T04:23:32;8.20;;;4.90;;
29838;SDS011;18669;53.356;-1.464;2022-11-20T04:28:30;8.18;;;5.25;;
29838;SDS011;18669;53.356;-1.464;2022-11-20T04:31:06;13.77;;;6.15;;
29838;SDS011;18669;53.356;-1.464;2022-11-20T04:33:34;12.00;;;5.63;;
29838;SDS011;18669;53.356;-1.464;2022-11-20T04:36:03;11.50;;;4.88;;
29838;SDS011;18669;53.356;-1.464;2022-11-20T04:38:31;9.73;;;4.75;;
29838;SDS011;18669;53.356;-1.464;2022-11-20T04:41:02;9.00;;;5.10;;
29838;SDS011;18669;53.356;-1.464;2022-11-20T04:43:30;9.07;;;4.88;;
29838;SDS011;18669;53.356;-1.464;2022-11-20T04:45:58;11.55;;;5.05;;
29838;SDS011;18669;53.356;-1.464;2022-11-20T04:48:26;7.40;;;4.28;;
29838;SDS011;18669;53.356;-1.464;2022-11-20T04:50:54;6.88;;;4.28;;
29838;SDS011;18669;53.356;-1.464;2022-11-20T04:53:20;7.97;;;4.35;;
29838;SDS011;18669;53.356;-1.464;2022-11-20T04:55:47;6.22;;;4.32;;
29838;SDS011;18669;53.356;-1.464;2022-11-20T04:58:14;8.40;;;4.68;;
29838;SDS011;18669;53.356;-1.464;2022-11-20T05:00:42;9.90;;;4.13;;
29838;SDS011;18669;53.356;-1.464;2022-11-20T05:03:09;7.40;;;3.92;;
29838;SDS011;18669;53.356;-1.464;2022-11-20T05:05:35;6.70;;;4.13;;
29838;SDS011;18669;53.356;-1.464;2022-11-20T05:08:01;8.55;;;3.97;;
29838;SDS011;18669;53.356;-1.464;2022-11-20T05:10:28;8.57;;;3.60;;
29838;SDS011;18669;53.356;-1.464;2022-11-20T05:15:20;5.38;;;3.47;;
29838;SDS011;18669;53.356;-1.464;2022-11-20T05:17:46;6.47;;;4.18;;
29838;SDS011;18669;53.356;-1.464;2022-11-20T05:20:14;5.40;;;4.40;;
29838;SDS011;18669;53.356;-1.464;2022-11-20T05:25:06;4.32;;;3.70;;
29838;SDS011;18669;53.356;-1.464;2022-11-20T05:27:32;5.78;;;4.15;;
29838;SDS011;18669;53.356;-1.464;2022-11-20T05:29:58;5.38;;;3.97;;
29838;SDS011;18669;53.356;-1.464;2022-11-20T05:32:25;7.18;;;4.07;;
29838;SDS011;18669;53.356;-1.464;2022-11-20T05:37:18;6.53;;;3.50;;
29838;SDS011;18669;53.356;-1.464;2022-11-20T05:39:44;5.25;;;3.30;;
29838;SDS011;18669;53.356;-1.464;2022-11-20T05:42:10;4.05;;;3.55;;
29838;SDS011;18669;53.356;-1.464;2022-11-20T05:44:54;6.88;;;3.28;;
29838;SDS011;18669;53.356;-1.464;2022-11-20T05:47:20;3.78;;;3.30;;
29838;SDS011;18669;53.356;-1.464;2022-11-20T05:49:47;4.82;;;3.00;;
29838;SDS011;18669;53.356;-1.464;2022-11-20T05:52:13;3.70;;;3.30;;
29838;SDS011;18669;53.356;-1.464;2022-11-20T05:54:39;3.95;;;3.20;;
29838;SDS011;18669;53.356;-1.464;2022-11-20T05:57:05;3.58;;;3.00;;
29838;SDS011;18669;53.356;-1.464;2022-11-20T05:59:35;3.97;;;3.15;;
29838;SDS011;18669;53.356;-1.464;2022-11-20T06:02:02;4.03;;;3.30;;
29838;SDS011;18669;53.356;-1.464;2022-11-20T06:06:54;5.03;;;3.10;;
29838;SDS011;18669;53.356;-1.464;2022-11-20T06:09:20;3.30;;;2.88;;
29838;SDS011;18669;53.356;-1.464;2022-11-20T06:11:46;3.53;;;2.80;;
29838;SDS011;18669;53.356;-1.464;2022-11-20T06:14:12;5.28;;;3.63;;
29838;SDS011;18669;53.356;-1.464;2022-11-20T06:19:04;6.05;;;2.60;;
29838;SDS011;18669;53.356;-1.464;2022-11-20T06:21:30;3.70;;;3.05;;
29838;SDS011;18669;53.356;-1.464;2022-11-20T06:23:57;4.10;;;3.17;;
29838;SDS011;18669;53.356;-1.464;2022-11-20T06:26:23;3.30;;;2.20;;
29838;SDS011;18669;53.356;-1.464;2022-11-20T06:28:52;2.20;;;2.00;;
29838;SDS011;18669;53.356;-1.464;2022-11-20T06:31:20;3.58;;;2.50;;
29838;SDS011;18669;53.356;-1.464;2022-11-20T06:33:49;2.28;;;2.08;;
29838;SDS011;18669;53.356;-1.464;2022-11-20T06:36:16;3.38;;;2.38;;
29838;SDS011;18669;53.356;-1.464;2022-11-20T06:38:44;2.83;;;2.22;;
29838;SDS011;18669;53.356;-1.464;2022-11-20T06:43:38;2.13;;;1.70;;
29838;SDS011;18669;53.356;-1.464;2022-11-20T06:46:05;2.10;;;1.70;;
29838;SDS011;18669;53.356;-1.464;2022-11-20T06:48:31;1.67;;;1.58;;
29838;SDS011;18669;53.356;-1.464;2022-11-20T06:53:24;2.92;;;2.15;;
29838;SDS011;18669;53.356;-1.464;2022-11-20T06:55:51;1.85;;;1.73;;
29838;SDS011;18669;53.356;-1.464;2022-11-20T06:58:17;2.60;;;1.80;;
29838;SDS011;18669;53.356;-1.464;2022-11-20T07:00:44;2.40;;;2.05;;
29838;SDS011;18669;53.356;-1.464;2022-11-20T07:05:37;2.55;;;1.67;;
29838;SDS011;18669;53.356;-1.464;2022-11-20T07:08:06;2.00;;;1.88;;
29838;SDS011;18669;53.356;-1.464;2022-11-20T07:10:33;2.90;;;1.75;;
29838;SDS011;18669;53.356;-1.464;2022-11-20T07:13:00;2.15;;;1.70;;
29838;SDS011;18669;53.356;-1.464;2022-11-20T07:17:52;2.65;;;2.10;;
29838;SDS011;18669;53.356;-1.464;2022-11-20T07:22:44;2.00;;;1.80;;
29838;SDS011;18669;53.356;-1.464;2022-11-20T07:27:37;5.45;;;2.17;;
29838;SDS011;18669;53.356;-1.464;2022-11-20T07:32:29;6.00;;;2.15;;
29838;SDS011;18669;53.356;-1.464;2022-11-20T07:34:56;2.63;;;2.40;;
29838;SDS011;18669;53.356;-1.464;2022-11-20T07:37:22;6.32;;;2.90;;
29838;SDS011;18669;53.356;-1.464;2022-11-20T07:42:14;4.68;;;3.08;;
29838;SDS011;18669;53.356;-1.464;2022-11-20T07:44:40;4.55;;;3.30;;
29838;SDS011;18669;53.356;-1.464;2022-11-20T07:47:06;7.95;;;3.53;;
29838;SDS011;18669;53.356;-1.464;2022-11-20T07:49:32;5.10;;;3.97;;
29838;SDS011;18669;53.356;-1.464;2022-11-20T07:51:59;5.35;;;4.22;;
29838;SDS011;18669;53.356;-1.464;2022-11-20T07:54:25;5.93;;;4.63;;
29838;SDS011;18669;53.356;-1.464;2022-11-20T07:56:51;4.82;;;4.05;;
29838;SDS011;18669;53.356;-1.464;2022-11-20T07:59:19;5.53;;;4.07;;
29838;SDS011;18669;53.356;-1.464;2022-11-20T08:01:45;5.28;;;3.92;;
29838;SDS011;18669;53.356;-1.464;2022-11-20T08:04:11;6.97;;;4.18;;
29838;SDS011;18669;53.356;-1.464;2022-11-20T08:06:38;7.40;;;4.85;;
29838;SDS011;18669;53.356;-1.464;2022-11-20T08:09:04;4.65;;;4.07;;
29838;SDS011;18669;53.356;-1.464;2022-11-20T08:11:30;5.50;;;4.43;;
29838;SDS011;18669;53.356;-1.464;2022-11-20T08:14:16;4.80;;;4.30;;
29838;SDS011;18669;53.356;-1.464;2022-11-20T08:16:43;5.47;;;4.47;;
29838;SDS011;18669;53.356;-1.464;2022-11-20T08:19:11;10.60;;;5.13;;
29838;SDS011;18669;53.356;-1.464;2022-11-20T08:21:39;9.52;;;5.25;;
29838;SDS011;18669;53.356;-1.464;2022-11-20T08:24:06;12.38;;;5.97;;
29838;SDS011;18669;53.356;-1.464;2022-11-20T08:26:34;13.77;;;5.32;;
29838;SDS011;18669;53.356;-1.464;2022-11-20T08:29:01;15.75;;;6.00;;
29838;SDS011;18669;53.356;-1.464;2022-11-20T08:31:28;12.70;;;5.68;;
29838;SDS011;18669;53.356;-1.464;2022-11-20T08:36:20;15.18;;;6.68;;
29838;SDS011;18669;53.356;-1.464;2022-11-20T08:38:49;13.07;;;5.28;;
29838;SDS011;18669;53.356;-1.464;2022-11-20T08:41:19;9.73;;;4.53;;
29838;SDS011;18669;53.356;-1.464;2022-11-20T08:43:53;13.05;;;4.45;;
29838;SDS011;18669;53.356;-1.464;2022-11-20T08:46:22;9.05;;;4.05;;
29838;SDS011;18669;53.356;-1.464;2022-11-20T08:48:50;11.30;;;4.45;;
29838;SDS011;18669;53.356;-1.464;2022-11-20T08:51:18;9.90;;;4.20;;
29838;SDS011;18669;53.356;-1.464;2022-11-20T08:53:46;9.88;;;4.07;;
29838;SDS011;18669;53.356;-1.464;2022-11-20T08:56:14;8.50;;;4.00;;
29838;SDS011;18669;53.356;-1.464;2022-11-20T08:58:40;14.90;;;4.15;;
29838;SDS011;18669;53.356;-1.464;2022-11-20T09:01:07;11.23;;;4.00;;
29838;SDS011;18669;53.356;-1.464;2022-11-20T09:03:33;8.30;;;3.92;;
29838;SDS011;18669;53.356;-1.464;2022-11-20T09:06:04;6.88;;;3.90;;
29838;SDS011;18669;53.356;-1.464;2022-11-20T09:08:32;11.48;;;4.60;;
29838;SDS011;18669;53.356;-1.464;2022-11-20T09:10:59;12.45;;;4.53;;
29838;SDS011;18669;53.356;-1.464;2022-11-20T09:13:26;14.35;;;4.43;;
29838;SDS011;18669;53.356;-1.464;2022-11-20T09:15:55;12.98;;;5.10;;
29838;SDS011;18669;53.356;-1.464;2022-11-20T09:18:22;15.02;;;4.97;;
29838;SDS011;18669;53.356;-1.464;2022-11-20T09:20:49;13.48;;;5.05;;
29838;SDS011;18669;53.356;-1.464;2022-11-20T09:23:16;17.05;;;4.53;;
29838;SDS011;18669;53.356;-1.464;2022-11-20T09:25:42;9.60;;;4.35;;
29838;SDS011;18669;53.356;-1.464;2022-11-20T09:28:09;9.65;;;4.55;;
29838;SDS011;18669;53.356;-1.464;2022-11-20T09:30:36;11.85;;;5.35;;
29838;SDS011;18669;53.356;-1.464;2022-11-20T09:33:03;14.85;;;7.40;;
29838;SDS011;18669;53.356;-1.464;2022-11-20T09:35:30;15.95;;;7.03;;
29838;SDS011;18669;53.356;-1.464;2022-11-20T09:37:57;14.40;;;5.15;;
29838;SDS011;18669;53.356;-1.464;2022-11-20T09:40:25;23.35;;;4.80;;
29838;SDS011;18669;53.356;-1.464;2022-11-20T09:43:02;13.10;;;3.85;;
29838;SDS011;18669;53.356;-1.464;2022-11-20T09:48:17;8.75;;;4.03;;
29838;SDS011;18669;53.356;-1.464;2022-11-20T09:56:37;22.67;;;4.63;;
29838;SDS011;18669;53.356;-1.464;2022-11-20T09:59:07;15.65;;;4.13;;
29838;SDS011;18669;53.356;-1.464;2022-11-20T10:04:11;13.57;;;4.20;;
29838;SDS011;18669;53.356;-1.464;2022-11-20T10:06:51;13.63;;;3.80;;
29838;SDS011;18669;53.356;-1.464;2022-11-20T10:09:37;15.35;;;4.32;;
29838;SDS011;18669;53.356;-1.464;2022-11-20T10:25:14;11.85;;;2.97;;
29838;SDS011;18669;53.356;-1.464;2022-11-20T10:27:48;15.03;;;2.93;;
29838;SDS011;18669;53.356;-1.464;2022-11-20T10:30:40;10.45;;;2.30;;
29838;SDS011;18669;53.356;-1.464;2022-11-20T10:33:19;13.50;;;2.33;;
29838;SDS011;18669;53.356;-1.464;2022-11-20T10:36:04;11.65;;;2.80;;
29838;SDS011;18669;53.356;-1.464;2022-11-20T10:38:36;10.80;;;2.30;;
29838;SDS011;18669;53.356;-1.464;2022-11-20T10:41:08;9.13;;;2.30;;
29838;SDS011;18669;53.356;-1.464;2022-11-20T10:46:24;10.15;;;2.20;;
29838;SDS011;18669;53.356;-1.464;2022-11-20T10:48:51;9.93;;;2.15;;
29838;SDS011;18669;53.356;-1.464;2022-11-20T10:51:21;13.48;;;2.50;;
29838;SDS011;18669;53.356;-1.464;2022-11-20T10:57:00;17.55;;;2.92;;
29838;SDS011;18669;53.356;-1.464;2022-11-20T11:02:17;16.80;;;2.60;;
29838;SDS011;18669;53.356;-1.464;2022-11-20T11:04:51;15.10;;;3.28;;
29838;SDS011;18669;53.356;-1.464;2022-11-20T11:07:27;10.50;;;2.35;;
29838;SDS011;18669;53.356;-1.464;2022-11-20T11:10:00;10.82;;;3.10;;
29838;SDS011;18669;53.356;-1.464;2022-11-20T11:14:54;16.92;;;2.33;;
29838;SDS011;18669;53.356;-1.464;2022-11-20T11:22:31;11.70;;;2.78;;
29838;SDS011;18669;53.356;-1.464;2022-11-20T11:24:59;14.15;;;3.00;;
29838;SDS011;18669;53.356;-1.464;2022-11-20T11:27:27;14.68;;;3.42;;
29838;SDS011;18669;53.356;-1.464;2022-11-20T11:32:38;12.43;;;2.70;;
29838;SDS011;18669;53.356;-1.464;2022-11-20T11:35:05;13.23;;;2.88;;
29838;SDS011;18669;53.356;-1.464;2022-11-20T11:37:44;17.23;;;3.17;;
29838;SDS011;18669;53.356;-1.464;2022-11-20T11:40:15;17.13;;;3.20;;
29838;SDS011;18669;53.356;-1.464;2022-11-20T11:42:44;11.48;;;2.50;;
29838;SDS011;18669;53.356;-1.464;2022-11-20T11:45:16;14.85;;;2.40;;
29838;SDS011;18669;53.356;-1.464;2022-11-20T11:55:52;23.42;;;3.15;;
29838;SDS011;18669;53.356;-1.464;2022-11-20T11:58:27;12.10;;;2.83;;
29838;SDS011;18669;53.356;-1.464;2022-11-20T12:04:02;11.07;;;2.10;;
29838;SDS011;18669;53.356;-1.464;2022-11-20T12:06:30;8.93;;;1.88;;
29838;SDS011;18669;53.356;-1.464;2022-11-20T12:09:03;12.85;;;2.72;;
29838;SDS011;18669;53.356;-1.464;2022-11-20T12:14:18;7.75;;;2.00;;
29838;SDS011;18669;53.356;-1.464;2022-11-20T12:16:52;13.88;;;2.42;;
29838;SDS011;18669;53.356;-1.464;2022-11-20T12:19:21;17.15;;;2.13;;
29838;SDS011;18669;53.356;-1.464;2022-11-20T12:21:54;13.50;;;2.78;;
29838;SDS011;18669;53.356;-1.464;2022-11-20T12:32:53;11.65;;;2.20;;
29838;SDS011;18669;53.356;-1.464;2022-11-20T12:41:20;11.00;;;2.50;;
29838;SDS011;18669;53.356;-1.464;2022-11-20T12:47:46;15.30;;;2.42;;
29838;SDS011;18669;53.356;-1.464;2022-11-20T12:55:53;13.20;;;2.65;;
29838;SDS011;18669;53.356;-1.464;2022-11-20T13:01:12;12.40;;;3.05;;
29838;SDS011;18669;53.356;-1.464;2022-11-20T13:04:08;22.13;;;3.42;;
29838;SDS011;18669;53.356;-1.464;2022-11-20T13:06:47;20.52;;;2.88;;
29838;SDS011;18669;53.356;-1.464;2022-11-20T13:09:15;13.93;;;3.58;;
29838;SDS011;18669;53.356;-1.464;2022-11-20T13:17:59;19.63;;;4.85;;
29838;SDS011;18669;53.356;-1.464;2022-11-20T13:20:27;17.63;;;3.67;;
29838;SDS011;18669;53.356;-1.464;2022-11-20T13:22:55;24.33;;;6.43;;
29838;SDS011;18669;53.356;-1.464;2022-11-20T13:27:54;21.67;;;4.45;;
29838;SDS011;18669;53.356;-1.464;2022-11-20T13:30:22;19.42;;;4.03;;
29838;SDS011;18669;53.356;-1.464;2022-11-20T13:33:09;13.88;;;3.25;;
29838;SDS011;18669;53.356;-1.464;2022-11-20T13:38:43;11.85;;;3.50;;
29838;SDS011;18669;53.356;-1.464;2022-11-20T13:41:22;18.42;;;3.60;;
29838;SDS011;18669;53.356;-1.464;2022-11-20T13:44:04;24.40;;;6.25;;
29838;SDS011;18669;53.356;-1.464;2022-11-20T13:46:47;14.25;;;4.55;;
29838;SDS011;18669;53.356;-1.464;2022-11-20T14:03:36;31.35;;;10.43;;
29838;SDS011;18669;53.356;-1.464;2022-11-20T14:06:05;19.60;;;6.43;;
29838;SDS011;18669;53.356;-1.464;2022-11-20T14:08:44;22.42;;;8.00;;
29838;SDS011;18669;53.356;-1.464;2022-11-20T14:11:22;37.53;;;13.35;;
29838;SDS011;18669;53.356;-1.464;2022-11-20T14:16:32;20.05;;;5.53;;
29838;SDS011;18669;53.356;-1.464;2022-11-20T14:21:49;27.85;;;10.25;;
29838;SDS011;18669;53.356;-1.464;2022-11-20T14:24:22;20.77;;;6.63;;
29838;SDS011;18669;53.356;-1.464;2022-11-20T14:26:50;21.17;;;6.97;;
29838;SDS011;18669;53.356;-1.464;2022-11-20T14:29:18;19.83;;;6.47;;
29838;SDS011;18669;53.356;-1.464;2022-11-20T14:31:48;18.73;;;5.70;;
29838;SDS011;18669;53.356;-1.464;2022-11-20T14:34:19;15.57;;;3.78;;
29838;SDS011;18669;53.356;-1.464;2022-11-20T14:36:49;16.80;;;4.32;;
29838;SDS011;18669;53.356;-1.464;2022-11-20T14:39:21;20.65;;;3.90;;
29838;SDS011;18669;53.356;-1.464;2022-11-20T14:41:54;21.25;;;4.03;;
29838;SDS011;18669;53.356;-1.464;2022-11-20T14:46:52;18.48;;;3.17;;
29838;SDS011;18669;53.356;-1.464;2022-11-20T14:49:18;20.70;;;3.22;;
29838;SDS011;18669;53.356;-1.464;2022-11-20T14:51:45;14.00;;;2.80;;
29838;SDS011;18669;53.356;-1.464;2022-11-20T14:54:18;14.20;;;2.97;;
29838;SDS011;18669;53.356;-1.464;2022-11-20T14:56:58;13.23;;;2.65;;
29838;SDS011;18669;53.356;-1.464;2022-11-20T14:59:26;8.70;;;2.65;;
29838;SDS011;18669;53.356;-1.464;2022-11-20T15:04:29;15.43;;;3.40;;
29838;SDS011;18669;53.356;-1.464;2022-11-20T15:11:55;13.73;;;3.20;;
29838;SDS011;18669;53.356;-1.464;2022-11-20T15:14:24;14.38;;;3.70;;
29838;SDS011;18669;53.356;-1.464;2022-11-20T15:16:52;16.60;;;3.50;;
29838;SDS011;18669;53.356;-1.464;2022-11-20T15:19:23;16.27;;;3.97;;
29838;SDS011;18669;53.356;-1.464;2022-11-20T15:21:50;13.43;;;3.70;;
29838;SDS011;18669;53.356;-1.464;2022-11-20T15:24:18;14.18;;;4.43;;
29838;SDS011;18669;53.356;-1.464;2022-11-20T15:26:45;11.90;;;4.55;;
29838;SDS011;18669;53.356;-1.464;2022-11-20T15:29:11;20.50;;;3.95;;
29838;SDS011;18669;53.356;-1.464;2022-11-20T15:31:39;17.67;;;3.55;;
29838;SDS011;18669;53.356;-1.464;2022-11-20T15:34:09;14.35;;;3.45;;
29838;SDS011;18669;53.356;-1.464;2022-11-20T15:36:38;16.30;;;4.10;;
29838;SDS011;18669;53.356;-1.464;2022-11-20T15:39:05;13.25;;;3.97;;
29838;SDS011;18669;53.356;-1.464;2022-11-20T15:41:36;18.92;;;3.78;;
29838;SDS011;18669;53.356;-1.464;2022-11-20T15:44:03;10.63;;;2.75;;
29838;SDS011;18669;53.356;-1.464;2022-11-20T15:46:30;21.92;;;3.55;;
29838;SDS011;18669;53.356;-1.464;2022-11-20T15:49:03;16.80;;;4.50;;
29838;SDS011;18669;53.356;-1.464;2022-11-20T15:51:32;14.98;;;3.83;;
29838;SDS011;18669;53.356;-1.464;2022-11-20T15:54:01;10.35;;;3.00;;
29838;SDS011;18669;53.356;-1.464;2022-11-20T15:56:36;7.32;;;2.78;;
29838;SDS011;18669;53.356;-1.464;2022-11-20T15:59:03;12.98;;;2.65;;
29838;SDS011;18669;53.356;-1.464;2022-11-20T16:03:56;10.05;;;3.22;;
29838;SDS011;18669;53.356;-1.464;2022-11-20T16:08:48;13.15;;;3.30;;
29838;SDS011;18669;53.356;-1.464;2022-11-20T16:11:15;10.60;;;3.30;;
29838;SDS011;18669;53.356;-1.464;2022-11-20T16:13:44;10.00;;;2.97;;
29838;SDS011;18669;53.356;-1.464;2022-11-20T16:16:31;9.13;;;3.60;;
29838;SDS011;18669;53.356;-1.464;2022-11-20T16:18:59;10.23;;;4.75;;
29838;SDS011;18669;53.356;-1.464;2022-11-20T16:21:26;11.68;;;4.13;;
29838;SDS011;18669;53.356;-1.464;2022-11-20T16:24:00;4.90;;;3.08;;
29838;SDS011;18669;53.356;-1.464;2022-11-20T16:26:28;5.32;;;3.55;;
29838;SDS011;18669;53.356;-1.464;2022-11-20T16:28:54;4.63;;;2.35;;
29838;SDS011;18669;53.356;-1.464;2022-11-20T16:31:21;8.48;;;2.20;;
29838;SDS011;18669;53.356;-1.464;2022-11-20T16:33:49;5.25;;;2.38;;
29838;SDS011;18669;53.356;-1.464;2022-11-20T16:36:18;3.08;;;2.25;;
29838;SDS011;18669;53.356;-1.464;2022-11-20T16:38:45;4.18;;;1.55;;
29838;SDS011;18669;53.356;-1.464;2022-11-20T16:41:11;3.78;;;1.20;;
29838;SDS011;18669;53.356;-1.464;2022-11-20T16:43:43;1.80;;;1.40;;
29838;SDS011;18669;53.356;-1.464;2022-11-20T16:46:12;3.67;;;2.78;;
29838;SDS011;18669;53.356;-1.464;2022-11-20T16:48:42;4.03;;;1.83;;
29838;SDS011;18669;53.356;-1.464;2022-11-20T16:51:11;3.30;;;2.10;;
29838;SDS011;18669;53.356;-1.464;2022-11-20T16:53:38;2.10;;;1.23;;
29838;SDS011;18669;53.356;-1.464;2022-11-20T16:56:15;3.70;;;1.80;;
29838;SDS011;18669;53.356;-1.464;2022-11-20T16:58:43;2.55;;;1.70;;
29838;SDS011;18669;53.356;-1.464;2022-11-20T17:01:11;6.97;;;3.03;;
29838;SDS011;18669;53.356;-1.464;2022-11-20T17:03:39;9.57;;;4.75;;
29838;SDS011;18669;53.356;-1.464;2022-11-20T17:06:10;5.43;;;2.92;;
29838;SDS011;18669;53.356;-1.464;2022-11-20T17:08:37;7.63;;;4.25;;
29838;SDS011;18669;53.356;-1.464;2022-11-20T17:11:04;5.93;;;3.30;;
29838;SDS011;18669;53.356;-1.464;2022-11-20T17:13:32;6.22;;;3.10;;
29838;SDS011;18669;53.356;-1.464;2022-11-20T17:16:09;3.22;;;2.00;;
29838;SDS011;18669;53.356;-1.464;2022-11-20T17:18:37;4.50;;;2.17;;
29838;SDS011;18669;53.356;-1.464;2022-11-20T17:23:31;4.28;;;2.63;;
29838;SDS011;18669;53.356;-1.464;2022-11-20T17:26:03;3.50;;;2.60;;
29838;SDS011;18669;53.356;-1.464;2022-11-20T17:28:31;4.63;;;2.88;;
29838;SDS011;18669;53.356;-1.464;2022-11-20T17:31:00;4.00;;;2.78;;
29838;SDS011;18669;53.356;-1.464;2022-11-20T17:33:27;3.72;;;2.90;;
29838;SDS011;18669;53.356;-1.464;2022-11-20T17:35:54;9.18;;;5.20;;
29838;SDS011;18669;53.356;-1.464;2022-11-20T17:38:20;5.95;;;3.00;;
29838;SDS011;18669;53.356;-1.464;2022-11-20T17:40:47;7.70;;;4.25;;
29838;SDS011;18669;53.356;-1.464;2022-11-20T17:43:14;10.05;;;5.07;;
29838;SDS011;18669;53.356;-1.464;2022-11-20T17:45:40;6.60;;;3.75;;
29838;SDS011;18669;53.356;-1.464;2022-11-20T17:48:07;7.55;;;5.30;;
29838;SDS011;18669;53.356;-1.464;2022-11-20T17:50:33;8.07;;;2.78;;
29838;SDS011;18669;53.356;-1.464;2022-11-20T17:53:00;4.22;;;3.05;;
29838;SDS011;18669;53.356;-1.464;2022-11-20T17:55:26;6.60;;;4.20;;